Time;durP1;ratioP1;P1;durP2;ratioP2;P2;SDS_P1;SDS_P2;PMS_P1;PMS_P2;Temp;Humidity;BMP_temperature;BMP_pressure;BME280_temperature;BME280_humidity;BME280_pressure;Samples;Min_cycle;Max_cycle;Signal;HPM_P1;HPM_P2
2022/06/18 00:02:15;;;;;;;14.40;5.60;;;26.10;99.90;;;;;;5072087;28;20259;-75
2022/06/18 00:04:43;;;;;;;18.88;7.15;;;29.70;99.90;;;;;;5072796;28;20264;-77
2022/06/18 00:07:14;;;;;;;20.17;7.20;;;25.50;1.00;;;;;;5072279;28;20206;-77
2022/06/18 00:09:44;;;;;;;16.95;6.47;;;26.10;90.20;;;;;;5070253;28;20210;-74
2022/06/18 00:15:02;;;;;;;21.15;6.70;;;26.00;1.00;;;;;;5072027;28;20692;-74
2022/06/18 00:17:29;;;;;;;10.98;6.32;;;26.30;78.30;;;;;;5071699;28;20211;-76
2022/06/18 00:19:56;;;;;;;11.93;5.88;;;26.20;93.40;;;;;;5060597;28;20657;-76
2022/06/18 00:22:24;;;;;;;22.27;5.65;;;26.00;93.10;;;;;;5069587;28;20242;-75
2022/06/18 00:24:52;;;;;;;17.35;5.93;;;25.90;93.80;;;;;;5071798;28;20677;-75
2022/06/18 00:27:21;;;;;;;14.77;6.22;;;26.00;94.10;;;;;;5064724;28;20207;-74
2022/06/18 00:29:49;;;;;;;14.88;4.97;;;26.10;93.90;;;;;;5075849;28;20266;-76
2022/06/18 00:32:16;;;;;;;10.95;5.10;;;25.80;94.10;;;;;;5077474;28;20213;-74
2022/06/18 00:34:43;;;;;;;15.93;5.63;;;25.90;95.40;;;;;;5083088;28;20232;-73
2022/06/18 00:37:17;;;;;;;15.95;5.68;;;26.00;96.00;;;;;;5078699;28;20230;-73
2022/06/18 00:39:44;;;;;;;14.75;5.90;;;25.70;94.90;;;;;;5072002;28;20730;-78
2022/06/18 00:42:27;;;;;;;13.52;6.18;;;25.60;96.00;;;;;;5089098;28;20303;-75
2022/06/18 00:44:59;;;;;;;16.33;6.88;;;25.50;95.80;;;;;;5091813;28;20304;-75
2022/06/18 00:47:32;;;;;;;15.07;5.07;;;25.30;95.70;;;;;;5085204;28;20202;-75
2022/06/18 00:50:05;;;;;;;12.73;6.07;;;25.20;96.20;;;;;;5082841;28;20209;-75
2022/06/18 00:52:37;;;;;;;18.77;5.85;;;25.20;97.50;;;;;;5090967;28;20628;-76
2022/06/18 00:55:10;;;;;;;18.50;5.45;;;25.20;97.10;;;;;;5091677;28;20210;-76
2022/06/18 00:57:43;;;;;;;20.25;6.22;;;25.30;97.30;;;;;;5076014;28;20639;-75
2022/06/18 01:00:27;;;;;;;13.07;5.70;;;25.40;98.10;;;;;;5091256;28;20636;-75
2022/06/18 01:02:54;;;;;;;18.42;6.47;;;25.40;98.50;;;;;;5091377;28;20217;-76
2022/06/18 01:05:24;;;;;;;14.52;4.97;;;25.50;97.30;;;;;;5091203;28;20209;-76
2022/06/18 01:07:55;;;;;;;18.10;5.00;;;25.60;98.00;;;;;;5085428;28;20206;-76
2022/06/18 01:10:29;;;;;;;11.35;5.25;;;25.70;97.70;;;;;;5090152;28;20220;-74
2022/06/18 01:13:00;;;;;;;18.85;7.78;;;25.80;97.50;;;;;;5091221;28;20198;-75
2022/06/18 01:15:27;;;;;;;18.35;5.90;;;25.60;97.90;;;;;;5090838;28;20266;-71
2022/06/18 01:17:55;;;;;;;20.02;6.10;;;25.60;97.20;;;;;;5084695;28;20742;-72
2022/06/18 01:20:24;;;;;;;20.67;7.68;;;25.50;96.50;;;;;;5090607;28;20213;-74
2022/06/18 01:22:59;;;;;;;14.48;5.57;;;25.60;99.90;;;;;;5090965;28;20209;-75
2022/06/18 01:25:29;;;;;;;12.73;5.72;;;25.60;95.30;;;;;;5090683;28;20281;-75
2022/06/18 01:27:57;;;;;;;8.98;5.05;;;25.60;95.80;;;;;;5078452;28;20231;-73
2022/06/18 01:30:31;;;;;;;12.32;5.82;;;25.70;96.30;;;;;;5080263;28;20248;-73
2022/06/18 01:32:59;;;;;;;10.68;4.47;;;25.80;95.90;;;;;;5078524;28;20205;-72
2022/06/18 01:35:26;;;;;;;14.48;4.72;;;25.80;96.10;;;;;;5090560;28;20255;-75
2022/06/18 01:37:53;;;;;;;16.73;6.07;;;25.80;96.20;;;;;;5081581;28;20203;-71
2022/06/18 01:40:28;;;;;;;10.48;5.80;;;25.80;95.20;;;;;;5081233;28;20722;-72
2022/06/18 01:42:59;;;;;;;18.85;6.28;;;25.80;95.10;;;;;;5090862;28;20254;-74
2022/06/18 01:45:30;;;;;;;18.05;6.28;;;25.70;95.60;;;;;;5090016;28;20201;-75
2022/06/18 01:48:01;;;;;;;9.38;4.68;;;25.70;95.60;;;;;;5075134;28;20246;-73
2022/06/18 01:50:35;;;;;;;8.30;4.97;;;25.70;96.10;;;;;;5086304;28;20197;-72
2022/06/18 01:53:07;;;;;;;7.45;5.10;;;25.70;95.50;;;;;;5090561;28;20209;-70
2022/06/18 01:55:39;;;;;;;8.00;4.57;;;25.70;95.40;;;;;;5090211;28;20201;-74
2022/06/18 01:58:12;;;;;;;14.40;5.22;;;25.80;94.90;;;;;;5072932;28;20221;-71
2022/06/18 02:00:41;;;;;;;7.63;4.72;;;25.70;95.50;;;;;;5076349;28;20266;-71
2022/06/18 02:03:08;;;;;;;15.68;5.80;;;25.90;95.90;;;;;;5088705;28;20673;-72
2022/06/18 02:05:37;;;;;;;10.45;4.38;;;25.90;95.90;;;;;;5086621;28;20210;-71
2022/06/18 02:08:06;;;;;;;8.75;5.13;;;25.90;95.30;;;;;;5090510;28;20205;-71
2022/06/18 02:10:38;;;;;;;11.13;5.18;;;26.00;95.30;;;;;;5090104;28;20202;-71
2022/06/18 02:13:08;;;;;;;11.73;4.90;;;25.90;94.70;;;;;;5078205;28;20223;-72
2022/06/18 02:15:40;;;;;;;7.90;4.70;;;25.90;95.40;;;;;;5079244;28;20258;-70
2022/06/18 02:18:11;;;;;;;7.97;4.72;;;25.90;94.80;;;;;;5088429;28;20266;-71
2022/06/18 02:20:43;;;;;;;7.75;4.10;;;26.00;95.40;;;;;;5089255;28;20210;-70
2022/06/18 02:23:10;;;;;;;8.80;4.95;;;26.00;95.30;;;;;;5094632;28;20209;-71
2022/06/18 02:25:38;;;;;;;12.60;5.72;;;26.00;95.20;;;;;;5089251;28;20209;-72
2022/06/18 02:28:16;;;;;;;9.50;4.22;;;26.00;95.10;;;;;;5094014;28;20209;-71
2022/06/18 02:30:44;;;;;;;11.88;4.13;;;26.00;94.60;;;;;;5084455;28;20193;-72
2022/06/18 02:33:18;;;;;;;7.25;4.63;;;26.00;95.20;;;;;;5089924;28;20726;-71
2022/06/18 02:35:46;;;;;;;6.05;4.05;;;25.90;95.00;;;;;;5094210;28;20289;-72
2022/06/18 02:38:18;;;;;;;9.13;4.90;;;25.90;95.70;;;;;;5094199;28;20210;-72
2022/06/18 02:40:45;;;;;;;5.43;3.90;;;25.90;94.70;;;;;;5094324;28;20617;-71
2022/06/18 02:43:13;;;;;;;6.53;3.95;;;25.80;95.30;;;;;;5083034;28;20203;-70
2022/06/18 02:45:44;;;;;;;8.25;4.75;;;25.70;96.00;;;;;;5093861;28;20201;-71
2022/06/18 02:48:11;;;;;;;7.30;4.47;;;25.70;96.10;;;;;;5094361;28;20205;-71
2022/06/18 02:50:40;;;;;;;6.35;4.03;;;26.20;98.30;;;;;;5093441;28;20198;-71
2022/06/18 02:53:11;;;;;;;8.48;5.15;;;25.60;99.90;;;;;;5093791;28;20205;-71
2022/06/18 02:55:40;;;;;;;9.60;4.10;;;25.60;95.30;;;;;;5093200;28;20259;-73
2022/06/18 02:58:12;;;;;;;6.68;3.90;;;25.60;95.50;;;;;;5086674;28;20206;-72
2022/06/18 03:00:43;;;;;;;4.80;4.10;;;25.50;95.60;;;;;;5085052;28;20598;-72
2022/06/18 03:03:13;;;;;;;6.93;4.35;;;25.50;95.50;;;;;;5074687;28;20239;-72
2022/06/18 03:05:40;;;;;;;9.40;4.30;;;25.60;96.50;;;;;;5093146;28;20264;-68
2022/06/18 03:08:08;;;;;;;5.47;4.03;;;25.50;95.90;;;;;;5092920;28;20282;-70
2022/06/18 03:13:20;;;;;;;6.93;4.20;;;25.50;95.00;;;;;;5093236;28;20266;-71
2022/06/18 03:15:50;;;;;;;5.00;3.42;;;25.50;95.40;;;;;;5089423;28;20211;-70
2022/06/18 03:18:20;;;;;;;8.15;4.10;;;25.40;95.60;;;;;;5093118;28;20209;-70
2022/06/18 03:20:57;;;;;;;4.88;3.40;;;25.40;95.40;;;;;;5090091;28;20213;-71
2022/06/18 03:23:25;;;;;;;6.72;3.58;;;26.50;1.00;;;;;;5063221;28;20233;-69
2022/06/18 03:25:52;;;;;;;4.43;3.60;;;26.50;1.00;;;;;;5071796;28;20210;-69
2022/06/18 03:28:20;;;;;;;6.88;4.10;;;25.70;1.00;;;;;;5072535;28;20588;-68
2022/06/18 03:30:49;;;;;;;4.20;3.22;;;26.60;96.50;;;;;;5072611;28;20540;-68
2022/06/18 03:33:16;;;;;;;5.65;3.85;;;25.50;96.30;;;;;;5085718;28;20677;-68
2022/06/18 03:35:46;;;;;;;6.10;3.83;;;25.40;97.50;;;;;;5075358;28;20206;-68
2022/06/18 03:38:14;;;;;;;6.78;4.00;;;25.40;96.70;;;;;;5073907;28;20214;-69
2022/06/18 03:40:43;;;;;;;4.47;4.07;;;25.30;96.10;;;;;;5072324;28;20670;-69
2022/06/18 03:43:11;;;;;;;6.10;3.65;;;25.30;97.60;;;;;;5075195;28;20237;-69
2022/06/18 03:45:41;;;;;;;5.32;3.95;;;25.30;96.20;;;;;;5065462;28;20259;-71
2022/06/18 03:48:15;;;;;;;6.80;3.70;;;26.10;1.00;;;;;;5070168;28;20207;-70
2022/06/18 03:50:42;;;;;;;4.25;3.72;;;;;;;;;;5074497;28;20263;-70
2022/06/18 03:53:10;;;;;;;4.30;3.90;;;25.40;99.90;;;;;;5072593;28;20241;-71
2022/06/18 03:55:38;;;;;;;12.23;4.68;;;25.90;1.00;;;;;;5075829;28;20210;-71
2022/06/18 03:58:06;;;;;;;5.10;3.65;;;;;;;;;;5073975;28;20210;-70
2022/06/18 04:00:33;;;;;;;8.18;4.47;;;24.90;78.40;;;;;;5072116;28;20246;-71
2022/06/18 04:03:00;;;;;;;9.20;4.43;;;24.90;97.20;;;;;;5076041;28;20693;-71
2022/06/18 04:05:29;;;;;;;8.18;4.97;;;25.00;98.10;;;;;;5080136;28;20205;-71
2022/06/18 04:07:57;;;;;;;7.40;3.83;;;;;;;;;;5075812;28;20583;-70
2022/06/18 04:10:24;;;;;;;6.95;3.53;;;24.50;99.90;;;;;;5081050;28;20670;-71
2022/06/18 04:12:51;;;;;;;9.57;4.28;;;24.90;98.30;;;;;;5069095;28;20590;-71
2022/06/18 04:15:19;;;;;;;8.40;4.03;;;;;;;;;;5080065;28;20291;-70
2022/06/18 04:17:47;;;;;;;6.80;3.67;;;;;;;;;;5072252;28;20234;-72
2022/06/18 04:20:20;;;;;;;5.10;3.78;;;24.90;84.80;;;;;;5075201;28;20204;-70
2022/06/18 04:22:49;;;;;;;7.40;5.05;;;24.50;99.90;;;;;;5079937;28;21042;-71
2022/06/18 04:25:16;;;;;;;10.98;4.28;;;25.00;84.50;;;;;;5081958;28;20669;-71
2022/06/18 04:27:44;;;;;;;7.43;4.80;;;26.20;1.00;;;;;;5082384;28;20263;-70
2022/06/18 04:30:13;;;;;;;13.45;4.15;;;21.60;1.00;;;;;;5071573;28;20202;-72
2022/06/18 04:32:40;;;;;;;7.78;4.45;;;;;;;;;;5070628;28;20287;-70
2022/06/18 04:35:10;;;;;;;6.93;4.00;;;24.70;99.90;;;;;;5072843;28;20700;-72
2022/06/18 04:37:38;;;;;;;5.00;4.50;;;24.60;79.20;;;;;;5071560;28;20225;-71
2022/06/18 04:40:07;;;;;;;5.78;4.13;;;24.70;97.60;;;;;;5073646;28;20630;-70
2022/06/18 04:42:34;;;;;;;8.98;5.00;;;24.70;98.20;;;;;;5072742;28;20248;-72
2022/06/18 04:45:01;;;;;;;6.28;5.28;;;24.50;98.70;;;;;;5072362;28;20198;-73
2022/06/18 04:47:28;;;;;;;8.27;5.10;;;24.90;98.00;;;;;;5069270;28;20206;-72
2022/06/18 04:49:56;;;;;;;9.57;5.05;;;24.80;98.10;;;;;;5070313;28;20645;-70
2022/06/18 04:52:23;;;;;;;5.75;4.05;;;24.70;97.90;;;;;;5069847;28;20598;-71
2022/06/18 04:54:52;;;;;;;9.38;4.70;;;24.70;99.10;;;;;;5070797;28;20621;-71
2022/06/18 04:57:20;;;;;;;7.25;4.57;;;24.70;98.50;;;;;;5069239;28;20202;-73
2022/06/18 04:59:47;;;;;;;8.43;5.03;;;24.60;98.90;;;;;;5071096;28;20259;-70
2022/06/18 05:02:19;;;;;;;5.70;4.88;;;24.50;98.90;;;;;;5070640;28;20245;-71
2022/06/18 05:04:46;;;;;;;7.43;5.20;;;24.70;98.70;;;;;;5071231;28;20205;-72
2022/06/18 05:07:13;;;;;;;7.60;4.80;;;24.80;99.30;;;;;;5066566;28;20716;-73
2022/06/18 05:09:40;;;;;;;7.47;4.82;;;24.80;98.70;;;;;;5065621;28;20203;-71
2022/06/18 05:12:08;;;;;;;4.38;3.83;;;24.80;99.00;;;;;;5070487;28;20226;-70
2022/06/18 05:14:36;;;;;;;7.43;4.57;;;24.80;98.90;;;;;;5070427;28;20198;-71
2022/06/18 05:17:04;;;;;;;4.95;4.07;;;24.70;98.60;;;;;;5070517;28;20260;-72
2022/06/18 05:19:33;;;;;;;5.57;4.30;;;24.90;99.20;;;;;;5059123;28;20205;-70
2022/06/18 05:22:01;;;;;;;8.63;4.82;;;24.90;99.50;;;;;;5070473;28;20218;-71
2022/06/18 05:24:28;;;;;;;6.65;4.45;;;25.00;99.80;;;;;;5068027;28;20202;-69
2022/06/18 05:26:57;;;;;;;8.90;4.28;;;24.90;99.20;;;;;;5070673;28;20256;-70
2022/06/18 05:29:25;;;;;;;6.50;4.82;;;24.90;99.40;;;;;;5069840;28;20202;-70
2022/06/18 05:31:53;;;;;;;9.90;4.82;;;25.00;99.70;;;;;;5064642;28;20221;-70
2022/06/18 05:34:20;;;;;;;8.52;5.85;;;25.10;99.90;;;;;;5090741;28;20201;-70
2022/06/18 05:36:47;;;;;;;4.80;4.40;;;25.20;99.90;;;;;;5085179;28;20201;-70
2022/06/18 05:39:17;;;;;;;6.40;5.00;;;25.30;99.90;;;;;;5078657;28;20209;-71
2022/06/18 05:41:44;;;;;;;6.93;4.75;;;25.20;99.90;;;;;;5088334;28;20243;-73
2022/06/18 05:44:11;;;;;;;6.30;4.45;;;25.30;99.90;;;;;;5091027;28;20637;-72
2022/06/18 05:46:39;;;;;;;5.35;4.30;;;25.30;99.90;;;;;;5090418;28;20223;-75
2022/06/18 05:49:07;;;;;;;5.70;5.03;;;25.50;99.90;;;;;;5085828;28;20638;-74
2022/06/18 05:51:34;;;;;;;5.20;4.70;;;25.40;99.90;;;;;;5078473;28;20674;-75
2022/06/18 05:54:01;;;;;;;6.30;4.63;;;25.40;99.90;;;;;;5088766;28;20240;-74
2022/06/18 05:56:28;;;;;;;5.35;4.55;;;25.30;99.90;;;;;;5092629;28;20259;-76
2022/06/18 05:58:55;;;;;;;7.43;4.90;;;25.40;99.90;;;;;;5097273;28;20201;-75
2022/06/18 06:01:22;;;;;;;6.65;4.85;;;25.70;99.90;;;;;;5091590;28;20210;-73
2022/06/18 06:03:49;;;;;;;6.00;4.78;;;25.70;99.90;;;;;;5088787;28;20629;-73
2022/06/18 06:06:17;;;;;;;8.68;4.75;;;25.80;99.90;;;;;;5097020;28;20258;-73
2022/06/18 06:08:44;;;;;;;8.50;5.03;;;25.80;99.90;;;;;;5097267;28;20210;-75
2022/06/18 06:13:55;;;;;;;5.45;3.97;;;26.00;99.50;;;;;;5088014;28;20316;-75
2022/06/18 06:16:22;;;;;;;6.97;4.90;;;26.20;99.80;;;;;;5076615;28;20252;-75
2022/06/18 06:18:49;;;;;;;9.80;4.97;;;26.20;99.60;;;;;;5066009;28;20251;-77
2022/06/18 06:21:18;;;;;;;8.55;4.57;;;26.30;99.90;;;;;;5075643;28;20206;-75
2022/06/18 06:23:45;;;;;;;6.07;3.88;;;26.40;99.10;;;;;;5076416;28;20209;-74
2022/06/18 06:26:18;;;;;;;4.72;4.25;;;26.60;99.40;;;;;;5076828;28;20206;-74
2022/06/18 06:28:45;;;;;;;7.93;3.97;;;26.70;99.10;;;;;;5075071;28;20210;-75
2022/06/18 06:31:13;;;;;;;5.45;3.78;;;26.80;99.90;;;;;;5075573;28;20206;-75
2022/06/18 06:33:40;;;;;;;5.72;3.80;;;27.00;99.20;;;;;;5095849;28;20303;-76
2022/06/18 06:36:07;;;;;;;9.65;5.35;;;27.10;99.60;;;;;;5096935;28;20292;-77
2022/06/18 06:38:37;;;;;;;4.47;3.63;;;27.20;99.50;;;;;;5089065;28;20209;-74
2022/06/18 06:41:06;;;;;;;6.13;4.15;;;27.40;98.80;;;;;;5078060;28;20254;-73
2022/06/18 06:43:33;;;;;;;5.30;4.03;;;27.40;99.80;;;;;;5078899;28;20255;-73
2022/06/18 06:46:00;;;;;;;5.45;4.65;;;27.60;99.20;;;;;;5085815;28;20203;-73
2022/06/18 06:48:27;;;;;;;5.20;3.95;;;27.80;98.90;;;;;;5092458;28;20285;-73
2022/06/18 06:50:55;;;;;;;7.70;4.43;;;27.90;98.80;;;;;;5082112;28;20207;-74
2022/06/18 06:53:22;;;;;;;7.53;4.40;;;28.00;99.30;;;;;;5071900;28;20299;-74
2022/06/18 06:58:34;;;;;;;5.93;4.03;;;28.20;97.80;;;;;;5096344;28;20734;-79
2022/06/18 07:01:02;;;;;;;5.65;4.13;;;28.50;98.20;;;;;;5074760;28;20206;-76
2022/06/18 07:03:31;;;;;;;4.65;4.13;;;28.60;97.90;;;;;;5064038;28;20734;-74
2022/06/18 07:06:01;;;;;;;4.88;4.47;;;28.80;97.80;;;;;;5083002;28;20198;-79
2022/06/18 07:08:28;;;;;;;7.85;4.18;;;28.90;98.00;;;;;;5067385;28;20203;-74
2022/06/18 07:10:57;;;;;;;9.60;4.53;;;29.10;98.60;;;;;;5063107;28;20715;-74
2022/06/18 07:13:24;;;;;;;5.75;3.63;;;29.30;97.80;;;;;;5072386;28;20241;-70
2022/06/18 07:15:52;;;;;;;5.22;4.22;;;29.40;97.60;;;;;;5069922;28;20207;-69
2022/06/18 07:18:22;;;;;;;5.70;3.88;;;29.40;97.40;;;;;;5069169;28;20653;-71
2022/06/18 07:20:49;;;;;;;4.47;3.78;;;29.50;96.90;;;;;;5072984;28;20623;-74
2022/06/18 07:23:16;;;;;;;7.18;3.80;;;29.70;97.30;;;;;;5069357;28;20214;-68
2022/06/18 07:25:44;;;;;;;5.20;3.47;;;29.90;97.00;;;;;;5067415;28;20259;-67
2022/06/18 07:28:12;;;;;;;5.78;4.55;;;29.90;96.70;;;;;;5072773;28;20214;-69
2022/06/18 07:30:40;;;;;;;5.10;3.95;;;30.00;96.30;;;;;;5067770;28;20676;-67
2022/06/18 07:33:07;;;;;;;6.50;3.53;;;30.20;97.40;;;;;;5063509;28;20235;-66
2022/06/18 07:35:36;;;;;;;9.38;4.47;;;30.30;96.70;;;;;;5065555;28;20207;-67
2022/06/18 07:38:03;;;;;;;6.05;3.60;;;30.50;96.60;;;;;;5073174;28;20677;-68
2022/06/18 07:40:35;;;;;;;4.10;3.75;;;30.30;96.00;;;;;;5082894;28;20256;-72
2022/06/18 07:43:04;;;;;;;5.68;4.57;;;30.50;96.10;;;;;;5076666;28;20203;-68
2022/06/18 07:45:33;;;;;;;4.82;3.25;;;30.60;96.30;;;;;;5077830;28;20201;-74
2022/06/18 07:48:00;;;;;;;7.43;3.63;;;30.80;95.90;;;;;;5085764;28;20206;-75
2022/06/18 07:50:26;;;;;;;6.03;3.53;;;30.70;95.60;;;;;;5086162;28;20202;-74
2022/06/18 07:52:53;;;;;;;5.20;3.58;;;31.00;95.70;;;;;;5082356;28;20785;-71
2022/06/18 07:55:22;;;;;;;5.85;3.85;;;31.30;94.80;;;;;;5068677;28;20605;-69
2022/06/18 07:57:50;;;;;;;9.00;3.88;;;31.40;95.40;;;;;;5071472;28;20259;-73
2022/06/18 08:00:19;;;;;;;8.75;3.90;;;31.40;94.30;;;;;;5086496;28;20255;-68
2022/06/18 08:02:49;;;;;;;5.90;2.90;;;31.30;93.80;;;;;;5090057;28;20209;-71
2022/06/18 08:05:21;;;;;;;6.43;2.65;;;31.60;94.00;;;;;;5086015;28;20572;-67
2022/06/18 08:07:48;;;;;;;4.30;2.97;;;31.90;94.00;;;;;;5075950;28;20577;-69
2022/06/18 08:10:16;;;;;;;6.28;3.05;;;32.40;94.20;;;;;;5072996;28;20248;-69
2022/06/18 08:12:43;;;;;;;12.20;3.70;;;32.50;94.30;;;;;;5073488;28;20231;-69
2022/06/18 08:15:10;;;;;;;3.60;3.30;;;32.40;93.50;;;;;;5066927;28;20206;-70
2022/06/18 08:17:37;;;;;;;5.15;3.28;;;32.50;93.90;;;;;;5075604;28;20254;-67
2022/06/18 08:20:09;;;;;;;6.35;2.95;;;32.60;93.90;;;;;;5081501;28;20204;-71
2022/06/18 08:22:39;;;;;;;8.00;2.95;;;32.40;92.90;;;;;;5075456;28;20587;-72
2022/06/18 08:25:07;;;;;;;3.47;2.55;;;32.20;92.60;;;;;;5079037;28;20217;-72
2022/06/18 08:27:35;;;;;;;3.78;2.60;;;32.20;93.50;;;;;;5072805;28;20255;-75
2022/06/18 08:30:02;;;;;;;5.32;3.10;;;32.20;92.90;;;;;;5088087;28;20255;-69
2022/06/18 08:32:29;;;;;;;4.57;2.42;;;32.10;92.90;;;;;;5080997;28;20208;-71
2022/06/18 08:34:56;;;;;;;5.45;2.75;;;32.20;92.40;;;;;;5082071;28;20205;-71
2022/06/18 08:37:25;;;;;;;4.82;3.55;;;32.40;92.50;;;;;;5081450;28;20197;-80
2022/06/18 08:39:52;;;;;;;6.72;3.35;;;32.10;91.60;;;;;;5066411;28;20202;-78
2022/06/18 08:42:43;;;;;;;4.57;2.97;;;32.10;91.40;;;;;;5081256;28;20213;-67
2022/06/18 08:45:27;;;;;;;5.18;3.33;;;32.30;91.40;;;;;;5069984;28;20623;-72
2022/06/18 08:48:15;;;;;;;6.88;3.33;;;32.50;92.40;;;;;;5064689;28;20282;-70
2022/06/18 08:50:51;;;;;;;6.28;3.25;;;33.00;92.90;;;;;;5067642;28;20668;-70
2022/06/18 08:53:48;;;;;;;5.97;3.38;;;32.90;92.00;;;;;;5066114;28;20283;-69
2022/06/18 08:56:26;;;;;;;4.60;3.13;;;33.00;92.00;;;;;;5069201;28;20662;-69
2022/06/18 08:59:04;;;;;;;2.80;2.58;;;33.20;92.80;;;;;;5070973;28;20205;-70
2022/06/18 09:01:35;;;;;;;6.70;3.22;;;32.90;91.60;;;;;;5070587;28;20243;-70
2022/06/18 09:04:10;;;;;;;8.98;3.92;;;33.00;91.90;;;;;;5070957;28;20661;-70
2022/06/18 09:06:53;;;;;;;4.82;2.88;;;33.20;92.10;;;;;;5069636;28;20212;-69
2022/06/18 09:09:28;;;;;;;5.10;3.10;;;33.90;92.90;;;;;;5070780;28;20573;-69
2022/06/18 09:12:05;;;;;;;6.43;3.40;;;34.30;93.70;;;;;;5070916;28;20213;-67
2022/06/18 09:14:42;;;;;;;9.15;3.17;;;34.40;94.80;;;;;;5070358;28;20266;-67
2022/06/18 09:17:16;;;;;;;9.73;3.15;;;36.00;96.40;;;;;;5070916;28;20209;-68
2022/06/18 09:19:48;;;;;;;9.25;3.38;;;34.30;93.80;;;;;;5071170;28;20608;-69
2022/06/18 09:22:19;;;;;;;8.73;3.75;;;35.00;96.40;;;;;;5070984;28;20626;-68
2022/06/18 09:24:49;;;;;;;5.07;3.35;;;35.80;95.80;;;;;;5070650;28;20209;-69
2022/06/18 09:27:22;;;;;;;4.63;3.22;;;35.70;96.80;;;;;;5070104;28;20213;-68
2022/06/18 09:29:55;;;;;;;7.35;2.85;;;36.40;97.10;;;;;;5070695;28;20206;-69
2022/06/18 09:32:28;;;;;;;6.13;2.72;;;36.10;98.20;;;;;;5078614;28;20673;-68
2022/06/18 09:35:00;;;;;;;6.40;3.03;;;37.50;99.70;;;;;;5090509;28;20251;-68
2022/06/18 09:37:34;;;;;;;3.75;3.30;;;38.60;99.90;;;;;;5090562;28;20205;-68
2022/06/18 09:40:04;;;;;;;6.13;3.10;;;38.10;99.90;;;;;;5090712;28;20631;-69
2022/06/18 09:42:39;;;;;;;5.72;3.25;;;37.90;99.90;;;;;;5090071;28;20221;-69
2022/06/18 09:45:10;;;;;;;4.57;3.10;;;37.90;99.90;;;;;;5090702;28;20216;-69
2022/06/18 09:47:39;;;;;;;6.80;2.60;;;38.60;99.90;;;;;;5090308;28;20215;-70
2022/06/18 09:50:15;;;;;;;4.68;3.80;;;39.30;99.90;;;;;;5090608;28;20274;-68
2022/06/18 09:52:45;;;;;;;6.47;2.88;;;37.70;99.90;;;;;;5090952;28;20212;-70
2022/06/18 09:55:17;;;;;;;8.18;3.47;;;37.50;99.90;;;;;;5090902;28;20688;-68
2022/06/18 09:57:50;;;;;;;4.57;3.33;;;37.60;99.30;;;;;;5090673;28;20201;-69
2022/06/18 10:00:20;;;;;;;7.88;3.35;;;36.40;96.90;;;;;;5089889;28;20208;-68
2022/06/18 10:02:51;;;;;;;6.93;3.35;;;37.00;98.50;;;;;;5075443;28;20205;-68
2022/06/18 10:08:09;;;;;;;6.72;2.67;;;37.80;99.30;;;;;;5090555;28;20211;-68
2022/06/18 10:10:40;;;;;;;6.25;3.70;;;38.80;99.90;;;;;;5089816;28;20637;-69
2022/06/18 10:13:15;;;;;;;3.83;3.13;;;40.20;99.90;;;;;;5090067;28;20653;-70
2022/06/18 10:15:42;;;;;;;6.40;3.60;;;39.60;99.90;;;;;;5090496;28;20575;-69
2022/06/18 10:18:34;;;;;;;4.65;2.75;;;39.70;99.90;;;;;;5090413;28;20250;-68
2022/06/18 10:21:09;;;;;;;5.97;2.67;;;41.80;99.90;;;;;;5090031;28;20246;-71
2022/06/18 10:23:48;;;;;;;8.00;3.08;;;40.90;99.90;;;;;;5089859;28;20298;-69
2022/06/18 10:26:27;;;;;;;6.00;3.42;;;39.40;99.90;;;;;;5090086;28;20204;-68
2022/06/18 10:29:08;;;;;;;7.95;3.47;;;39.30;99.80;;;;;;5090206;28;20205;-68
2022/06/18 10:31:48;;;;;;;4.40;3.22;;;41.00;99.90;;;;;;5075440;28;20685;-68
2022/06/18 10:34:33;;;;;;;6.00;3.30;;;41.10;99.90;;;;;;5090681;28;20228;-67
2022/06/18 10:37:10;;;;;;;5.93;3.55;;;40.40;99.90;;;;;;5090089;28;20257;-68
2022/06/18 10:39:48;;;;;;;3.92;3.60;;;36.50;90.90;;;;;;5089676;28;20208;-67
2022/06/18 10:42:27;;;;;;;6.70;3.95;;;35.90;88.20;;;;;;5090238;28;20244;-68
2022/06/18 10:45:09;;;;;;;7.63;3.63;;;35.70;86.90;;;;;;5093725;28;20273;-69
2022/06/18 10:47:39;;;;;;;3.80;3.50;;;35.00;84.50;;;;;;5069846;28;20209;-67
2022/06/18 10:50:09;;;;;;;9.65;4.30;;;35.00;84.90;;;;;;5093602;28;20208;-67
2022/06/18 10:52:36;;;;;;;5.07;3.42;;;35.20;85.50;;;;;;5093536;28;20664;-67
2022/06/18 10:55:11;;;;;;;10.50;4.05;;;35.30;87.50;;;;;;5093516;28;20232;-68
2022/06/18 10:57:38;;;;;;;3.83;3.47;;;34.90;84.40;;;;;;5066884;28;20204;-68
2022/06/18 11:00:14;;;;;;;5.78;4.63;;;34.70;82.80;;;;;;5094156;28;20274;-70
2022/06/18 11:02:42;;;;;;;5.82;4.00;;;34.80;82.90;;;;;;5066181;28;20702;-71
2022/06/18 11:05:26;;;;;;;5.78;3.83;;;34.50;81.10;;;;;;5093787;28;20216;-72
2022/06/18 11:07:54;;;;;;;7.60;4.15;;;34.50;81.90;;;;;;5093399;28;20737;-70
2022/06/18 11:10:27;;;;;;;12.35;4.47;;;34.70;83.10;;;;;;5092988;28;20672;-69
2022/06/18 11:12:57;;;;;;;4.43;4.00;;;34.50;84.10;;;;;;5066388;28;20261;-67
2022/06/18 11:15:29;;;;;;;5.25;3.45;;;34.40;82.40;;;;;;5092856;28;20769;-68
2022/06/18 11:17:56;;;;;;;10.65;4.68;;;34.50;82.60;;;;;;5065080;28;20619;-69
2022/06/18 11:20:27;;;;;;;3.78;3.47;;;34.60;83.70;;;;;;5092945;28;20200;-68
2022/06/18 11:22:57;;;;;;;6.03;3.90;;;34.90;84.60;;;;;;5093287;28;20205;-69
2022/06/18 11:25:31;;;;;;;4.90;3.53;;;35.00;83.40;;;;;;5092986;28;20262;-69
2022/06/18 11:28:01;;;;;;;4.53;3.40;;;35.20;87.30;;;;;;5093199;28;20340;-69
2022/06/18 11:30:33;;;;;;;6.85;4.57;;;34.90;85.30;;;;;;5085562;28;20216;-70
2022/06/18 11:33:03;;;;;;;8.43;3.83;;;34.70;84.80;;;;;;5087181;28;20213;-71
2022/06/18 11:35:33;;;;;;;9.85;4.28;;;34.80;85.70;;;;;;5092672;28;20264;-67
2022/06/18 11:38:02;;;;;;;7.45;3.85;;;34.70;85.00;;;;;;5092715;28;20201;-68
2022/06/18 11:40:30;;;;;;;7.65;4.57;;;34.90;85.00;;;;;;5076006;28;20251;-67
2022/06/18 11:43:03;;;;;;;7.22;4.60;;;35.10;87.10;;;;;;5073040;28;20612;-67
2022/06/18 11:45:49;;;;;;;5.20;3.97;;;34.90;86.60;;;;;;5072156;28;20215;-69
2022/06/18 11:48:24;;;;;;;4.50;4.03;;;34.90;85.80;;;;;;5072697;28;20213;-68
2022/06/18 11:50:57;;;;;;;5.38;4.28;;;35.30;99.90;;;;;;5072155;28;20689;-69
2022/06/18 11:53:41;;;;;;;8.77;6.10;;;34.70;86.20;;;;;;5071948;28;20266;-69
2022/06/18 11:56:20;;;;;;;5.00;4.50;;;34.90;87.00;;;;;;5072211;28;20255;-70
2022/06/18 11:58:53;;;;;;;5.80;3.92;;;34.80;91.90;;;;;;5072443;28;20260;-69
2022/06/18 12:01:29;;;;;;;5.30;4.35;;;35.10;90.00;;;;;;5069281;28;20206;-69
2022/06/18 12:04:01;;;;;;;7.55;4.93;;;35.10;89.40;;;;;;5069336;28;20216;-68
2022/06/18 12:06:37;;;;;;;11.82;5.43;;;35.60;90.70;;;;;;5071601;28;20197;-68
2022/06/18 12:09:04;;;;;;;5.03;4.53;;;35.80;90.80;;;;;;5071840;28;20205;-69
2022/06/18 12:11:46;;;;;;;9.65;4.80;;;36.00;91.30;;;;;;5071371;28;20202;-69
2022/06/18 12:14:20;;;;;;;7.88;5.03;;;36.10;92.00;;;;;;5072671;28;20237;-68
2022/06/18 12:16:55;;;;;;;6.90;4.28;;;35.60;91.50;;;;;;5058462;28;20659;-68
2022/06/18 12:19:29;;;;;;;5.68;4.35;;;35.60;91.80;;;;;;5071433;28;20205;-68
2022/06/18 12:22:04;;;;;;;9.55;4.50;;;35.70;92.30;;;;;;5058648;28;20279;-68
2022/06/18 12:24:39;;;;;;;6.93;5.05;;;35.50;90.90;;;;;;5071441;28;20215;-69
2022/06/18 12:27:12;;;;;;;7.30;4.55;;;35.40;91.00;;;;;;5071838;28;20268;-68
2022/06/18 12:30:05;;;;;;;5.80;5.25;;;35.30;91.10;;;;;;5071324;28;20202;-68
2022/06/18 12:33:19;;;;;;;5.97;4.75;;;35.30;90.60;;;;;;5081620;28;20201;-68
2022/06/18 12:35:52;;;;;;;9.10;3.92;;;35.00;89.20;;;;;;5075141;28;20306;-70
2022/06/18 12:38:46;;;;;;;6.78;3.53;;;34.70;90.00;;;;;;5086433;28;20558;-71
2022/06/18 12:41:22;;;;;;;5.25;3.88;;;34.80;88.90;;;;;;5092194;28;20216;-69
2022/06/18 12:44:04;;;;;;;6.30;3.70;;;35.20;91.20;;;;;;5091291;28;20223;-71
2022/06/18 12:46:41;;;;;;;4.32;3.97;;;35.20;90.90;;;;;;5090862;28;20287;-68
2022/06/18 12:49:15;;;;;;;5.97;3.13;;;35.30;90.40;;;;;;5091529;28;20254;-72
2022/06/18 12:51:52;;;;;;;5.50;4.03;;;35.50;91.20;;;;;;5091745;28;20204;-68
2022/06/18 12:54:40;;;;;;;4.50;3.50;;;35.20;90.80;;;;;;5090875;28;20281;-69
2022/06/18 12:57:17;;;;;;;5.38;3.88;;;35.20;90.40;;;;;;5091198;28;20300;-70
2022/06/18 12:59:52;;;;;;;8.63;4.22;;;35.30;90.80;;;;;;5091871;28;20201;-71
2022/06/18 13:02:26;;;;;;;7.93;5.60;;;35.30;91.60;;;;;;5090788;28;20261;-70
2022/06/18 13:05:18;;;;;;;4.13;3.58;;;35.30;90.50;;;;;;5091069;28;20212;-72
2022/06/18 13:07:52;;;;;;;4.07;3.75;;;35.10;90.30;;;;;;5063268;28;20217;-70
2022/06/18 13:10:26;;;;;;;4.63;4.18;;;35.50;91.30;;;;;;5090952;28;20205;-70
2022/06/18 13:13:15;;;;;;;6.00;3.65;;;35.70;91.40;;;;;;5063783;28;20207;-68
2022/06/18 13:15:44;;;;;;;4.18;3.78;;;35.60;90.80;;;;;;5090938;28;20252;-70
2022/06/18 13:18:18;;;;;;;5.97;3.25;;;35.50;90.90;;;;;;5091365;28;20212;-68
2022/06/18 13:20:50;;;;;;;4.80;4.15;;;35.80;91.70;;;;;;5090839;28;20250;-69
2022/06/18 13:28:58;;;;;;;4.68;3.88;;;35.40;90.70;;;;;;5091189;28;20207;-69